sensor_id;sensor_type;location;lat;lon;timestamp;P1;durP1;ratioP1;P2;durP2;ratioP2
7158;SDS011;63175;52.374;13.132;2023-05-18T00:01:07;6.13;;;2.30;;
7158;SDS011;63175;52.374;13.132;2023-05-18T00:03:34;3.17;;;2.30;;
7158;SDS011;63175;52.374;13.132;2023-05-18T00:06:02;5.00;;;2.30;;
7158;SDS011;63175;52.374;13.132;2023-05-18T00:08:31;5.43;;;2.03;;
7158;SDS011;63175;52.374;13.132;2023-05-18T00:10:59;4.83;;;2.27;;
7158;SDS011;63175;52.374;13.132;2023-05-18T00:13:26;3.83;;;2.10;;
7158;SDS011;63175;52.374;13.132;2023-05-18T00:15:53;4.00;;;2.07;;
7158;SDS011;63175;52.374;13.132;2023-05-18T00:18:20;2.67;;;2.20;;
7158;SDS011;63175;52.374;13.132;2023-05-18T00:20:50;4.73;;;1.97;;
7158;SDS011;63175;52.374;13.132;2023-05-18T00:23:23;2.50;;;2.03;;
7158;SDS011;63175;52.374;13.132;2023-05-18T00:25:53;4.27;;;1.60;;
7158;SDS011;63175;52.374;13.132;2023-05-18T00:28:23;4.73;;;1.80;;
7158;SDS011;63175;52.374;13.132;2023-05-18T00:30:50;4.03;;;1.50;;
7158;SDS011;63175;52.374;13.132;2023-05-18T00:33:18;7.83;;;2.33;;
7158;SDS011;63175;52.374;13.132;2023-05-18T00:35:44;3.50;;;2.20;;
7158;SDS011;63175;52.374;13.132;2023-05-18T00:38:12;4.60;;;2.63;;
7158;SDS011;63175;52.374;13.132;2023-05-18T00:40:40;4.07;;;2.20;;
7158;SDS011;63175;52.374;13.132;2023-05-18T00:43:07;2.07;;;1.87;;
7158;SDS011;63175;52.374;13.132;2023-05-18T00:45:35;4.30;;;2.40;;
7158;SDS011;63175;52.374;13.132;2023-05-18T00:48:02;4.57;;;1.97;;
7158;SDS011;63175;52.374;13.132;2023-05-18T00:50:29;4.87;;;2.30;;
7158;SDS011;63175;52.374;13.132;2023-05-18T00:52:56;6.93;;;2.50;;
7158;SDS011;63175;52.374;13.132;2023-05-18T00:55:23;6.30;;;2.70;;
7158;SDS011;63175;52.374;13.132;2023-05-18T00:57:51;5.33;;;2.63;;
7158;SDS011;63175;52.374;13.132;2023-05-18T01:00:20;2.70;;;2.20;;
7158;SDS011;63175;52.374;13.132;2023-05-18T01:02:49;4.40;;;2.10;;
7158;SDS011;63175;52.374;13.132;2023-05-18T01:05:16;4.90;;;2.23;;
7158;SDS011;63175;52.374;13.132;2023-05-18T01:07:44;4.03;;;1.83;;
7158;SDS011;63175;52.374;13.132;2023-05-18T01:10:12;4.80;;;2.40;;
7158;SDS011;63175;52.374;13.132;2023-05-18T01:12:42;2.83;;;1.93;;
7158;SDS011;63175;52.374;13.132;2023-05-18T01:15:13;3.03;;;1.60;;
7158;SDS011;63175;52.374;13.132;2023-05-18T01:17:45;5.53;;;1.73;;
7158;SDS011;63175;52.374;13.132;2023-05-18T01:20:29;4.77;;;1.80;;
7158;SDS011;63175;52.374;13.132;2023-05-18T01:26:12;3.50;;;1.80;;
7158;SDS011;63175;52.374;13.132;2023-05-18T01:28:41;2.43;;;1.43;;
7158;SDS011;63175;52.374;13.132;2023-05-18T01:31:11;3.53;;;1.43;;
7158;SDS011;63175;52.374;13.132;2023-05-18T01:33:38;6.10;;;1.80;;
7158;SDS011;63175;52.374;13.132;2023-05-18T01:36:05;4.80;;;1.97;;
7158;SDS011;63175;52.374;13.132;2023-05-18T01:38:33;3.47;;;1.97;;
7158;SDS011;63175;52.374;13.132;2023-05-18T01:41:02;6.70;;;1.70;;
7158;SDS011;63175;52.374;13.132;2023-05-18T01:43:35;4.20;;;2.37;;
7158;SDS011;63175;52.374;13.132;2023-05-18T01:46:08;4.83;;;1.90;;
7158;SDS011;63175;52.374;13.132;2023-05-18T01:48:43;5.30;;;1.63;;
7158;SDS011;63175;52.374;13.132;2023-05-18T01:51:16;4.53;;;1.50;;
7158;SDS011;63175;52.374;13.132;2023-05-18T01:53:49;4.03;;;1.23;;
7158;SDS011;63175;52.374;13.132;2023-05-18T01:56:22;1.90;;;1.43;;
7158;SDS011;63175;52.374;13.132;2023-05-18T01:58:51;1.73;;;1.10;;
7158;SDS011;63175;52.374;13.132;2023-05-18T02:01:18;4.50;;;1.50;;
7158;SDS011;63175;52.374;13.132;2023-05-18T02:03:46;4.50;;;2.03;;
7158;SDS011;63175;52.374;13.132;2023-05-18T02:06:13;4.47;;;1.47;;
7158;SDS011;63175;52.374;13.132;2023-05-18T02:08:40;7.33;;;2.53;;
7158;SDS011;63175;52.374;13.132;2023-05-18T02:11:07;3.30;;;1.80;;
7158;SDS011;63175;52.374;13.132;2023-05-18T02:13:34;4.60;;;1.60;;
7158;SDS011;63175;52.374;13.132;2023-05-18T02:16:03;4.40;;;1.87;;
7158;SDS011;63175;52.374;13.132;2023-05-18T02:18:30;6.83;;;2.73;;
7158;SDS011;63175;52.374;13.132;2023-05-18T02:21:00;3.10;;;1.90;;
7158;SDS011;63175;52.374;13.132;2023-05-18T02:23:28;3.57;;;2.17;;
7158;SDS011;63175;52.374;13.132;2023-05-18T02:25:55;3.50;;;1.60;;
7158;SDS011;63175;52.374;13.132;2023-05-18T02:28:22;3.13;;;2.10;;
7158;SDS011;63175;52.374;13.132;2023-05-18T02:30:49;3.47;;;1.47;;
7158;SDS011;63175;52.374;13.132;2023-05-18T02:33:17;2.47;;;1.73;;
7158;SDS011;63175;52.374;13.132;2023-05-18T02:35:50;10.60;;;2.83;;
7158;SDS011;63175;52.374;13.132;2023-05-18T02:38:18;2.63;;;1.93;;
7158;SDS011;63175;52.374;13.132;2023-05-18T02:40:45;4.50;;;2.07;;
7158;SDS011;63175;52.374;13.132;2023-05-18T02:43:12;3.80;;;2.37;;
7158;SDS011;63175;52.374;13.132;2023-05-18T02:45:39;4.97;;;1.87;;
7158;SDS011;63175;52.374;13.132;2023-05-18T02:48:06;6.47;;;1.90;;
7158;SDS011;63175;52.374;13.132;2023-05-18T02:50:34;6.50;;;2.10;;
7158;SDS011;63175;52.374;13.132;2023-05-18T02:53:01;3.10;;;2.80;;
7158;SDS011;63175;52.374;13.132;2023-05-18T02:55:28;3.97;;;1.90;;
7158;SDS011;63175;52.374;13.132;2023-05-18T02:57:55;4.93;;;2.00;;
7158;SDS011;63175;52.374;13.132;2023-05-18T03:00:22;4.70;;;2.27;;
7158;SDS011;63175;52.374;13.132;2023-05-18T03:02:49;6.60;;;2.87;;
7158;SDS011;63175;52.374;13.132;2023-05-18T03:05:16;6.20;;;2.60;;
7158;SDS011;63175;52.374;13.132;2023-05-18T03:07:49;4.83;;;2.20;;
7158;SDS011;63175;52.374;13.132;2023-05-18T03:10:16;4.43;;;2.37;;
7158;SDS011;63175;52.374;13.132;2023-05-18T03:12:44;4.90;;;2.80;;
7158;SDS011;63175;52.374;13.132;2023-05-18T03:15:11;6.67;;;2.53;;
7158;SDS011;63175;52.374;13.132;2023-05-18T03:17:40;2.53;;;2.00;;
7158;SDS011;63175;52.374;13.132;2023-05-18T03:20:07;6.93;;;2.77;;
7158;SDS011;63175;52.374;13.132;2023-05-18T03:22:35;3.33;;;2.17;;
7158;SDS011;63175;52.374;13.132;2023-05-18T03:25:03;5.17;;;2.23;;
7158;SDS011;63175;52.374;13.132;2023-05-18T03:27:31;4.30;;;2.50;;
7158;SDS011;63175;52.374;13.132;2023-05-18T03:29:58;2.70;;;1.50;;
7158;SDS011;63175;52.374;13.132;2023-05-18T03:32:25;4.37;;;2.00;;
7158;SDS011;63175;52.374;13.132;2023-05-18T03:34:52;2.83;;;2.10;;
7158;SDS011;63175;52.374;13.132;2023-05-18T03:37:19;4.93;;;2.30;;
7158;SDS011;63175;52.374;13.132;2023-05-18T03:39:46;5.77;;;2.10;;
7158;SDS011;63175;52.374;13.132;2023-05-18T03:42:14;3.97;;;2.80;;
7158;SDS011;63175;52.374;13.132;2023-05-18T03:44:41;2.67;;;2.20;;
7158;SDS011;63175;52.374;13.132;2023-05-18T03:47:08;4.27;;;2.53;;
7158;SDS011;63175;52.374;13.132;2023-05-18T03:49:35;3.80;;;2.13;;
7158;SDS011;63175;52.374;13.132;2023-05-18T03:52:02;6.80;;;2.77;;
7158;SDS011;63175;52.374;13.132;2023-05-18T03:54:30;2.60;;;2.13;;
7158;SDS011;63175;52.374;13.132;2023-05-18T03:56:57;2.57;;;2.37;;
7158;SDS011;63175;52.374;13.132;2023-05-18T03:59:26;3.27;;;2.50;;
7158;SDS011;63175;52.374;13.132;2023-05-18T04:01:53;2.67;;;1.63;;
7158;SDS011;63175;52.374;13.132;2023-05-18T04:04:20;7.90;;;2.40;;
7158;SDS011;63175;52.374;13.132;2023-05-18T04:06:47;7.50;;;2.63;;
7158;SDS011;63175;52.374;13.132;2023-05-18T04:09:15;3.23;;;1.70;;
7158;SDS011;63175;52.374;13.132;2023-05-18T04:11:43;2.90;;;1.93;;
7158;SDS011;63175;52.374;13.132;2023-05-18T04:14:10;3.53;;;2.07;;
7158;SDS011;63175;52.374;13.132;2023-05-18T04:16:39;4.63;;;1.90;;
7158;SDS011;63175;52.374;13.132;2023-05-18T04:19:07;3.13;;;1.70;;
7158;SDS011;63175;52.374;13.132;2023-05-18T04:21:34;3.53;;;1.30;;
7158;SDS011;63175;52.374;13.132;2023-05-18T04:24:01;2.73;;;1.83;;
7158;SDS011;63175;52.374;13.132;2023-05-18T04:26:32;2.20;;;1.20;;
7158;SDS011;63175;52.374;13.132;2023-05-18T04:29:00;5.63;;;2.20;;
7158;SDS011;63175;52.374;13.132;2023-05-18T04:31:27;3.30;;;2.40;;
7158;SDS011;63175;52.374;13.132;2023-05-18T04:33:55;6.20;;;3.27;;
7158;SDS011;63175;52.374;13.132;2023-05-18T04:36:24;6.03;;;2.80;;
7158;SDS011;63175;52.374;13.132;2023-05-18T04:38:54;3.53;;;2.20;;
7158;SDS011;63175;52.374;13.132;2023-05-18T04:41:22;4.40;;;1.97;;
7158;SDS011;63175;52.374;13.132;2023-05-18T04:43:49;5.13;;;1.93;;
7158;SDS011;63175;52.374;13.132;2023-05-18T04:46:17;1.83;;;1.53;;
7158;SDS011;63175;52.374;13.132;2023-05-18T04:48:46;4.00;;;1.80;;
7158;SDS011;63175;52.374;13.132;2023-05-18T04:51:15;4.37;;;1.47;;
7158;SDS011;63175;52.374;13.132;2023-05-18T04:53:45;2.20;;;1.20;;
7158;SDS011;63175;52.374;13.132;2023-05-18T04:56:14;5.90;;;1.73;;
7158;SDS011;63175;52.374;13.132;2023-05-18T04:58:41;6.53;;;1.17;;
7158;SDS011;63175;52.374;13.132;2023-05-18T05:01:10;6.03;;;1.50;;
7158;SDS011;63175;52.374;13.132;2023-05-18T05:03:39;2.23;;;1.23;;
7158;SDS011;63175;52.374;13.132;2023-05-18T05:06:06;5.23;;;1.30;;
7158;SDS011;63175;52.374;13.132;2023-05-18T05:08:35;1.97;;;1.30;;
7158;SDS011;63175;52.374;13.132;2023-05-18T05:11:02;2.00;;;1.53;;
7158;SDS011;63175;52.374;13.132;2023-05-18T05:13:29;4.53;;;1.13;;
7158;SDS011;63175;52.374;13.132;2023-05-18T05:15:56;2.70;;;1.50;;
7158;SDS011;63175;52.374;13.132;2023-05-18T05:18:23;1.90;;;1.20;;
7158;SDS011;63175;52.374;13.132;2023-05-18T05:20:50;4.73;;;1.33;;
7158;SDS011;63175;52.374;13.132;2023-05-18T05:23:18;2.73;;;1.20;;
7158;SDS011;63175;52.374;13.132;2023-05-18T05:25:46;2.83;;;1.10;;
7158;SDS011;63175;52.374;13.132;2023-05-18T05:28:13;3.73;;;1.53;;
7158;SDS011;63175;52.374;13.132;2023-05-18T05:30:40;4.53;;;1.13;;
7158;SDS011;63175;52.374;13.132;2023-05-18T05:33:07;2.77;;;1.20;;
7158;SDS011;63175;52.374;13.132;2023-05-18T05:35:34;6.63;;;1.30;;
7158;SDS011;63175;52.374;13.132;2023-05-18T05:38:00;3.53;;;1.60;;
7158;SDS011;63175;52.374;13.132;2023-05-18T05:40:27;2.97;;;1.30;;
7158;SDS011;63175;52.374;13.132;2023-05-18T05:42:55;5.23;;;2.20;;
7158;SDS011;63175;52.374;13.132;2023-05-18T05:45:22;2.40;;;1.40;;
7158;SDS011;63175;52.374;13.132;2023-05-18T05:47:49;6.17;;;1.70;;
7158;SDS011;63175;52.374;13.132;2023-05-18T05:50:16;3.57;;;1.20;;
7158;SDS011;63175;52.374;13.132;2023-05-18T05:52:43;4.20;;;1.60;;
7158;SDS011;63175;52.374;13.132;2023-05-18T05:55:10;4.17;;;1.40;;
7158;SDS011;63175;52.374;13.132;2023-05-18T05:57:37;2.43;;;1.37;;
7158;SDS011;63175;52.374;13.132;2023-05-18T06:00:08;1.87;;;1.37;;
7158;SDS011;63175;52.374;13.132;2023-05-18T06:02:36;3.43;;;1.20;;
7158;SDS011;63175;52.374;13.132;2023-05-18T06:05:04;4.33;;;1.40;;
7158;SDS011;63175;52.374;13.132;2023-05-18T06:07:31;2.60;;;1.20;;
7158;SDS011;63175;52.374;13.132;2023-05-18T06:09:58;2.93;;;2.43;;
7158;SDS011;63175;52.374;13.132;2023-05-18T06:12:25;1.70;;;1.00;;
7158;SDS011;63175;52.374;13.132;2023-05-18T06:14:52;2.07;;;1.20;;
7158;SDS011;63175;52.374;13.132;2023-05-18T06:17:22;2.60;;;1.10;;
7158;SDS011;63175;52.374;13.132;2023-05-18T06:19:49;3.43;;;1.30;;
7158;SDS011;63175;52.374;13.132;2023-05-18T06:22:16;3.40;;;1.00;;
7158;SDS011;63175;52.374;13.132;2023-05-18T06:24:43;5.30;;;1.23;;
7158;SDS011;63175;52.374;13.132;2023-05-18T06:27:10;4.20;;;1.23;;
7158;SDS011;63175;52.374;13.132;2023-05-18T06:29:37;3.53;;;1.77;;
7158;SDS011;63175;52.374;13.132;2023-05-18T06:32:04;4.27;;;1.53;;
7158;SDS011;63175;52.374;13.132;2023-05-18T06:34:33;3.87;;;1.60;;
7158;SDS011;63175;52.374;13.132;2023-05-18T06:36:59;5.07;;;1.50;;
7158;SDS011;63175;52.374;13.132;2023-05-18T06:39:26;4.53;;;1.73;;
7158;SDS011;63175;52.374;13.132;2023-05-18T06:41:53;4.50;;;1.87;;
7158;SDS011;63175;52.374;13.132;2023-05-18T06:44:20;4.53;;;1.57;;
7158;SDS011;63175;52.374;13.132;2023-05-18T06:46:47;3.67;;;1.43;;
7158;SDS011;63175;52.374;13.132;2023-05-18T06:49:14;4.93;;;1.30;;
7158;SDS011;63175;52.374;13.132;2023-05-18T06:51:42;3.50;;;1.10;;
7158;SDS011;63175;52.374;13.132;2023-05-18T06:54:09;4.00;;;1.27;;
7158;SDS011;63175;52.374;13.132;2023-05-18T06:56:36;3.33;;;1.60;;
7158;SDS011;63175;52.374;13.132;2023-05-18T06:59:03;2.40;;;1.37;;
7158;SDS011;63175;52.374;13.132;2023-05-18T07:01:30;4.13;;;1.20;;
7158;SDS011;63175;52.374;13.132;2023-05-18T07:03:57;3.90;;;1.30;;
7158;SDS011;63175;52.374;13.132;2023-05-18T07:06:24;4.37;;;1.47;;
7158;SDS011;63175;52.374;13.132;2023-05-18T07:08:52;4.97;;;1.63;;
7158;SDS011;63175;52.374;13.132;2023-05-18T07:11:20;2.73;;;1.30;;
7158;SDS011;63175;52.374;13.132;2023-05-18T07:13:47;3.13;;;1.47;;
7158;SDS011;63175;52.374;13.132;2023-05-18T07:16:13;4.87;;;1.70;;
7158;SDS011;63175;52.374;13.132;2023-05-18T07:18:40;2.80;;;1.43;;
7158;SDS011;63175;52.374;13.132;2023-05-18T07:21:07;5.87;;;1.63;;
7158;SDS011;63175;52.374;13.132;2023-05-18T07:23:34;2.90;;;1.30;;
7158;SDS011;63175;52.374;13.132;2023-05-18T07:26:02;3.80;;;1.27;;
7158;SDS011;63175;52.374;13.132;2023-05-18T07:28:32;8.00;;;1.30;;
7158;SDS011;63175;52.374;13.132;2023-05-18T07:30:59;3.30;;;1.70;;
7158;SDS011;63175;52.374;13.132;2023-05-18T07:33:25;3.70;;;1.63;;
7158;SDS011;63175;52.374;13.132;2023-05-18T07:35:52;6.50;;;1.90;;
7158;SDS011;63175;52.374;13.132;2023-05-18T07:38:19;3.57;;;1.20;;
7158;SDS011;63175;52.374;13.132;2023-05-18T07:40:46;3.20;;;1.53;;
7158;SDS011;63175;52.374;13.132;2023-05-18T07:43:14;2.40;;;1.20;;
7158;SDS011;63175;52.374;13.132;2023-05-18T07:45:41;3.10;;;1.70;;
7158;SDS011;63175;52.374;13.132;2023-05-18T07:48:08;6.03;;;1.70;;
7158;SDS011;63175;52.374;13.132;2023-05-18T07:50:35;6.40;;;1.43;;
7158;SDS011;63175;52.374;13.132;2023-05-18T07:53:02;4.80;;;1.73;;
7158;SDS011;63175;52.374;13.132;2023-05-18T07:55:29;3.70;;;1.80;;
7158;SDS011;63175;52.374;13.132;2023-05-18T07:57:56;2.50;;;1.50;;
7158;SDS011;63175;52.374;13.132;2023-05-18T08:00:26;2.93;;;1.40;;
7158;SDS011;63175;52.374;13.132;2023-05-18T08:02:53;4.10;;;1.50;;
7158;SDS011;63175;52.374;13.132;2023-05-18T08:05:20;3.90;;;1.83;;
7158;SDS011;63175;52.374;13.132;2023-05-18T08:07:47;3.40;;;1.60;;
7158;SDS011;63175;52.374;13.132;2023-05-18T08:10:14;4.97;;;1.47;;
7158;SDS011;63175;52.374;13.132;2023-05-18T08:12:41;2.53;;;1.10;;
7158;SDS011;63175;52.374;13.132;2023-05-18T08:15:08;4.40;;;1.27;;
7158;SDS011;63175;52.374;13.132;2023-05-18T08:17:36;3.53;;;1.40;;
7158;SDS011;63175;52.374;13.132;2023-05-18T08:20:04;2.13;;;1.20;;
7158;SDS011;63175;52.374;13.132;2023-05-18T08:22:32;2.30;;;0.90;;
7158;SDS011;63175;52.374;13.132;2023-05-18T08:24:59;2.60;;;1.23;;
7158;SDS011;63175;52.374;13.132;2023-05-18T08:27:26;1.33;;;1.10;;
7158;SDS011;63175;52.374;13.132;2023-05-18T08:29:53;4.13;;;1.60;;
7158;SDS011;63175;52.374;13.132;2023-05-18T08:32:20;6.63;;;1.33;;
7158;SDS011;63175;52.374;13.132;2023-05-18T08:34:48;3.13;;;0.90;;
7158;SDS011;63175;52.374;13.132;2023-05-18T08:37:15;2.17;;;1.37;;
7158;SDS011;63175;52.374;13.132;2023-05-18T08:39:42;7.77;;;1.53;;
7158;SDS011;63175;52.374;13.132;2023-05-18T08:42:10;7.03;;;1.20;;
7158;SDS011;63175;52.374;13.132;2023-05-18T08:44:44;1.60;;;1.50;;
7158;SDS011;63175;52.374;13.132;2023-05-18T08:47:15;2.00;;;1.40;;
7158;SDS011;63175;52.374;13.132;2023-05-18T08:49:42;4.07;;;1.40;;
7158;SDS011;63175;52.374;13.132;2023-05-18T08:52:13;4.60;;;1.70;;
7158;SDS011;63175;52.374;13.132;2023-05-18T08:54:45;2.90;;;1.43;;
7158;SDS011;63175;52.374;13.132;2023-05-18T08:57:15;4.03;;;1.53;;
7158;SDS011;63175;52.374;13.132;2023-05-18T08:59:45;4.70;;;1.60;;
7158;SDS011;63175;52.374;13.132;2023-05-18T09:02:13;5.80;;;1.70;;
7158;SDS011;63175;52.374;13.132;2023-05-18T09:04:40;4.43;;;1.60;;
7158;SDS011;63175;52.374;13.132;2023-05-18T09:07:09;3.13;;;1.37;;
7158;SDS011;63175;52.374;13.132;2023-05-18T09:09:38;3.77;;;1.50;;
7158;SDS011;63175;52.374;13.132;2023-05-18T09:12:06;5.47;;;1.00;;
7158;SDS011;63175;52.374;13.132;2023-05-18T09:14:34;3.33;;;1.20;;
7158;SDS011;63175;52.374;13.132;2023-05-18T09:17:01;2.83;;;1.23;;
7158;SDS011;63175;52.374;13.132;2023-05-18T09:19:28;5.13;;;1.37;;
7158;SDS011;63175;52.374;13.132;2023-05-18T09:21:55;3.50;;;1.30;;
7158;SDS011;63175;52.374;13.132;2023-05-18T09:24:22;1.40;;;1.20;;
7158;SDS011;63175;52.374;13.132;2023-05-18T09:26:50;4.10;;;1.57;;
7158;SDS011;63175;52.374;13.132;2023-05-18T09:29:18;2.60;;;1.30;;
7158;SDS011;63175;52.374;13.132;2023-05-18T09:31:46;4.77;;;1.67;;
7158;SDS011;63175;52.374;13.132;2023-05-18T09:34:14;6.37;;;1.43;;
7158;SDS011;63175;52.374;13.132;2023-05-18T09:36:45;2.30;;;1.00;;
7158;SDS011;63175;52.374;13.132;2023-05-18T09:39:13;4.70;;;1.57;;
7158;SDS011;63175;52.374;13.132;2023-05-18T09:41:40;5.47;;;1.93;;
7158;SDS011;63175;52.374;13.132;2023-05-18T09:44:08;2.03;;;1.30;;
7158;SDS011;63175;52.374;13.132;2023-05-18T09:46:36;2.80;;;1.20;;
7158;SDS011;63175;52.374;13.132;2023-05-18T09:49:04;6.10;;;1.47;;
7158;SDS011;63175;52.374;13.132;2023-05-18T09:51:33;1.90;;;1.07;;
7158;SDS011;63175;52.374;13.132;2023-05-18T09:54:00;3.70;;;1.30;;
7158;SDS011;63175;52.374;13.132;2023-05-18T09:56:30;3.00;;;1.23;;
7158;SDS011;63175;52.374;13.132;2023-05-18T09:59:06;3.37;;;1.60;;
7158;SDS011;63175;52.374;13.132;2023-05-18T10:01:35;2.30;;;1.17;;
7158;SDS011;63175;52.374;13.132;2023-05-18T10:04:03;6.20;;;1.80;;
7158;SDS011;63175;52.374;13.132;2023-05-18T10:06:31;3.27;;;1.43;;
7158;SDS011;63175;52.374;13.132;2023-05-18T10:08:59;2.47;;;1.10;;
7158;SDS011;63175;52.374;13.132;2023-05-18T10:11:29;3.03;;;1.30;;
7158;SDS011;63175;52.374;13.132;2023-05-18T10:13:57;4.47;;;1.80;;
7158;SDS011;63175;52.374;13.132;2023-05-18T10:16:25;3.67;;;1.50;;
7158;SDS011;63175;52.374;13.132;2023-05-18T10:18:52;2.23;;;1.20;;
7158;SDS011;63175;52.374;13.132;2023-05-18T10:21:20;4.43;;;1.30;;
7158;SDS011;63175;52.374;13.132;2023-05-18T10:23:49;2.50;;;1.60;;
7158;SDS011;63175;52.374;13.132;2023-05-18T10:26:18;3.40;;;1.33;;
7158;SDS011;63175;52.374;13.132;2023-05-18T10:28:48;3.23;;;1.30;;
7158;SDS011;63175;52.374;13.132;2023-05-18T10:31:17;3.23;;;1.63;;
7158;SDS011;63175;52.374;13.132;2023-05-18T10:33:48;3.83;;;1.80;;
7158;SDS011;63175;52.374;13.132;2023-05-18T10:36:17;5.10;;;2.23;;
7158;SDS011;63175;52.374;13.132;2023-05-18T10:38:44;5.00;;;2.37;;
7158;SDS011;63175;52.374;13.132;2023-05-18T10:41:12;6.40;;;1.80;;
7158;SDS011;63175;52.374;13.132;2023-05-18T10:43:42;3.33;;;1.47;;
7158;SDS011;63175;52.374;13.132;2023-05-18T10:46:10;2.83;;;1.50;;
7158;SDS011;63175;52.374;13.132;2023-05-18T10:48:39;2.80;;;1.20;;
7158;SDS011;63175;52.374;13.132;2023-05-18T10:51:12;5.43;;;1.93;;
7158;SDS011;63175;52.374;13.132;2023-05-18T10:53:40;3.50;;;1.57;;
7158;SDS011;63175;52.374;13.132;2023-05-18T10:56:11;3.17;;;1.30;;
7158;SDS011;63175;52.374;13.132;2023-05-18T10:58:40;4.70;;;1.73;;
7158;SDS011;63175;52.374;13.132;2023-05-18T11:01:09;2.13;;;1.33;;
7158;SDS011;63175;52.374;13.132;2023-05-18T11:03:37;2.50;;;1.40;;
7158;SDS011;63175;52.374;13.132;2023-05-18T11:06:05;1.70;;;1.17;;
7158;SDS011;63175;52.374;13.132;2023-05-18T11:08:42;3.07;;;1.23;;
7158;SDS011;63175;52.374;13.132;2023-05-18T11:11:11;3.63;;;1.60;;
7158;SDS011;63175;52.374;13.132;2023-05-18T11:13:42;1.90;;;1.00;;
7158;SDS011;63175;52.374;13.132;2023-05-18T11:16:10;6.63;;;1.77;;
7158;SDS011;63175;52.374;13.132;2023-05-18T11:18:38;4.03;;;1.40;;
7158;SDS011;63175;52.374;13.132;2023-05-18T11:26:48;3.47;;;1.20;;
7158;SDS011;63175;52.374;13.132;2023-05-18T11:29:19;4.33;;;2.50;;
7158;SDS011;63175;52.374;13.132;2023-05-18T11:31:48;5.43;;;3.53;;
7158;SDS011;63175;52.374;13.132;2023-05-18T11:34:36;9.30;;;4.70;;
7158;SDS011;63175;52.374;13.132;2023-05-18T11:37:08;5.57;;;2.40;;
7158;SDS011;63175;52.374;13.132;2023-05-18T11:39:37;6.80;;;2.03;;
7158;SDS011;63175;52.374;13.132;2023-05-18T11:42:05;3.10;;;1.53;;
7158;SDS011;63175;52.374;13.132;2023-05-18T11:44:32;4.37;;;1.50;;
7158;SDS011;63175;52.374;13.132;2023-05-18T11:47:00;8.50;;;1.50;;
7158;SDS011;63175;52.374;13.132;2023-05-18T11:49:28;2.67;;;1.40;;
7158;SDS011;63175;52.374;13.132;2023-05-18T11:51:57;5.10;;;1.67;;
7158;SDS011;63175;52.374;13.132;2023-05-18T11:54:27;2.67;;;1.37;;
7158;SDS011;63175;52.374;13.132;2023-05-18T11:57:00;4.83;;;1.70;;
7158;SDS011;63175;52.374;13.132;2023-05-18T11:59:30;2.67;;;1.37;;
7158;SDS011;63175;52.374;13.132;2023-05-18T12:01:59;4.30;;;1.40;;
7158;SDS011;63175;52.374;13.132;2023-05-18T12:04:27;1.67;;;1.20;;
7158;SDS011;63175;52.374;13.132;2023-05-18T12:06:56;2.30;;;1.10;;
7158;SDS011;63175;52.374;13.132;2023-05-18T12:09:24;1.77;;;1.10;;
7158;SDS011;63175;52.374;13.132;2023-05-18T12:11:53;3.30;;;1.60;;
7158;SDS011;63175;52.374;13.132;2023-05-18T12:14:21;2.50;;;1.27;;
7158;SDS011;63175;52.374;13.132;2023-05-18T12:16:49;4.13;;;1.43;;
7158;SDS011;63175;52.374;13.132;2023-05-18T12:19:16;3.50;;;1.40;;
7158;SDS011;63175;52.374;13.132;2023-05-18T12:21:43;2.90;;;1.27;;
7158;SDS011;63175;52.374;13.132;2023-05-18T12:24:11;3.50;;;1.40;;
7158;SDS011;63175;52.374;13.132;2023-05-18T12:26:38;3.63;;;1.60;;
7158;SDS011;63175;52.374;13.132;2023-05-18T12:29:05;1.47;;;1.00;;
7158;SDS011;63175;52.374;13.132;2023-05-18T12:31:34;2.90;;;1.43;;
7158;SDS011;63175;52.374;13.132;2023-05-18T12:34:05;2.73;;;1.50;;
7158;SDS011;63175;52.374;13.132;2023-05-18T12:36:33;4.43;;;1.27;;
7158;SDS011;63175;52.374;13.132;2023-05-18T12:39:07;2.63;;;1.27;;
7158;SDS011;63175;52.374;13.132;2023-05-18T12:41:34;3.50;;;1.20;;
7158;SDS011;63175;52.374;13.132;2023-05-18T12:44:00;3.37;;;1.20;;
7158;SDS011;63175;52.374;13.132;2023-05-18T12:46:29;2.13;;;0.90;;
7158;SDS011;63175;52.374;13.132;2023-05-18T12:48:57;4.50;;;1.53;;
7158;SDS011;63175;52.374;13.132;2023-05-18T12:51:30;2.80;;;1.37;;
7158;SDS011;63175;52.374;13.132;2023-05-18T12:53:59;2.07;;;1.57;;
7158;SDS011;63175;52.374;13.132;2023-05-18T12:56:26;4.00;;;1.43;;
7158;SDS011;63175;52.374;13.132;2023-05-18T12:58:57;2.67;;;1.40;;
7158;SDS011;63175;52.374;13.132;2023-05-18T13:01:27;1.87;;;1.20;;
7158;SDS011;63175;52.374;13.132;2023-05-18T13:03:55;5.77;;;2.00;;
7158;SDS011;63175;52.374;13.132;2023-05-18T13:06:23;2.60;;;1.50;;
7158;SDS011;63175;52.374;13.132;2023-05-18T13:08:53;3.37;;;1.60;;
7158;SDS011;63175;52.374;13.132;2023-05-18T13:11:23;2.90;;;1.30;;
7158;SDS011;63175;52.374;13.132;2023-05-18T13:14:01;2.70;;;1.17;;
7158;SDS011;63175;52.374;13.132;2023-05-18T13:16:29;1.67;;;1.30;;
7158;SDS011;63175;52.374;13.132;2023-05-18T13:18:59;3.00;;;1.40;;
7158;SDS011;63175;52.374;13.132;2023-05-18T13:21:27;2.07;;;1.43;;
7158;SDS011;63175;52.374;13.132;2023-05-18T13:23:54;4.07;;;1.47;;
7158;SDS011;63175;52.374;13.132;2023-05-18T13:26:21;2.37;;;1.30;;
7158;SDS011;63175;52.374;13.132;2023-05-18T13:28:49;2.63;;;1.40;;
7158;SDS011;63175;52.374;13.132;2023-05-18T13:31:17;3.73;;;1.30;;
7158;SDS011;63175;52.374;13.132;2023-05-18T13:33:45;3.57;;;1.40;;
7158;SDS011;63175;52.374;13.132;2023-05-18T13:36:13;2.43;;;1.20;;
7158;SDS011;63175;52.374;13.132;2023-05-18T13:38:41;2.60;;;1.57;;
7158;SDS011;63175;52.374;13.132;2023-05-18T13:41:08;1.63;;;1.53;;
7158;SDS011;63175;52.374;13.132;2023-05-18T13:43:38;2.07;;;1.50;;
7158;SDS011;63175;52.374;13.132;2023-05-18T13:46:05;3.73;;;1.40;;
7158;SDS011;63175;52.374;13.132;2023-05-18T13:48:32;1.57;;;1.13;;
7158;SDS011;63175;52.374;13.132;2023-05-18T13:50:59;4.27;;;1.33;;
7158;SDS011;63175;52.374;13.132;2023-05-18T13:53:27;2.20;;;1.17;;
7158;SDS011;63175;52.374;13.132;2023-05-18T13:55:54;7.13;;;1.50;;
7158;SDS011;63175;52.374;13.132;2023-05-18T13:58:21;4.87;;;1.40;;
7158;SDS011;63175;52.374;13.132;2023-05-18T14:00:49;2.20;;;1.10;;
7158;SDS011;63175;52.374;13.132;2023-05-18T14:03:18;5.10;;;1.50;;
7158;SDS011;63175;52.374;13.132;2023-05-18T14:05:45;3.30;;;1.13;;
7158;SDS011;63175;52.374;13.132;2023-05-18T14:08:12;2.50;;;1.60;;
7158;SDS011;63175;52.374;13.132;2023-05-18T14:10:40;1.60;;;1.20;;
7158;SDS011;63175;52.374;13.132;2023-05-18T14:13:07;1.97;;;1.00;;
7158;SDS011;63175;52.374;13.132;2023-05-18T14:15:34;2.17;;;1.60;;
7158;SDS011;63175;52.374;13.132;2023-05-18T14:18:01;2.80;;;1.20;;
7158;SDS011;63175;52.374;13.132;2023-05-18T14:20:28;1.67;;;1.40;;
7158;SDS011;63175;52.374;13.132;2023-05-18T14:22:55;3.20;;;1.10;;
7158;SDS011;63175;52.374;13.132;2023-05-18T14:25:21;2.93;;;1.53;;
7158;SDS011;63175;52.374;13.132;2023-05-18T14:27:50;4.50;;;1.40;;
7158;SDS011;63175;52.374;13.132;2023-05-18T14:30:17;3.10;;;1.00;;
7158;SDS011;63175;52.374;13.132;2023-05-18T14:32:43;1.87;;;1.23;;
7158;SDS011;63175;52.374;13.132;2023-05-18T14:35:10;3.43;;;1.30;;
7158;SDS011;63175;52.374;13.132;2023-05-18T14:37:37;2.47;;;1.47;;
7158;SDS011;63175;52.374;13.132;2023-05-18T14:40:05;1.90;;;1.37;;
7158;SDS011;63175;52.374;13.132;2023-05-18T14:42:32;1.97;;;1.30;;
7158;SDS011;63175;52.374;13.132;2023-05-18T14:45:01;2.90;;;1.47;;
7158;SDS011;63175;52.374;13.132;2023-05-18T14:47:29;2.33;;;1.43;;
7158;SDS011;63175;52.374;13.132;2023-05-18T14:49:56;2.03;;;1.40;;
7158;SDS011;63175;52.374;13.132;2023-05-18T14:52:22;1.47;;;1.00;;
7158;SDS011;63175;52.374;13.132;2023-05-18T14:54:50;2.90;;;1.10;;
7158;SDS011;63175;52.374;13.132;2023-05-18T14:57:17;4.40;;;1.30;;
7158;SDS011;63175;52.374;13.132;2023-05-18T14:59:44;3.30;;;1.53;;
7158;SDS011;63175;52.374;13.132;2023-05-18T15:02:12;3.53;;;1.20;;